Time;durP1;ratioP1;P1;durP2;ratioP2;P2;SDS_P1;SDS_P2;PMS_P1;PMS_P2;Temp;Humidity;BMP_temperature;BMP_pressure;BME280_temperature;BME280_humidity;BME280_pressure;Samples;Min_cycle;Max_cycle;Signal;HPM_P1;HPM_P2
2023/10/07 00:00:32;;;;;;;8.32;4.10;;;16.50;99.90;;;;;;2075279;28;20064;-72
2023/10/07 00:01:33;;;;;;;9.30;4.80;;;16.50;99.90;;;;;;2076412;28;20021;-72
2023/10/07 00:02:34;;;;;;;8.32;4.40;;;16.50;99.90;;;;;;2076083;28;20107;-72
2023/10/07 00:03:37;;;;;;;7.68;3.95;;;16.50;99.90;;;;;;2077043;28;20413;-72
2023/10/07 00:04:44;;;;;;;9.00;3.80;;;16.50;99.90;;;;;;2077749;28;20017;-72
2023/10/07 00:05:50;;;;;;;8.10;4.20;;;16.50;99.90;;;;;;2075810;28;20080;-73
2023/10/07 00:06:51;;;;;;;8.52;4.45;;;16.50;99.90;;;;;;2076792;28;20021;-73
2023/10/07 00:08:03;;;;;;;8.32;4.25;;;16.50;99.90;;;;;;2076707;28;20631;-72
2023/10/07 00:09:10;;;;;;;7.15;4.75;;;16.50;99.90;;;;;;2067300;28;20050;-72
2023/10/07 00:10:15;;;;;;;7.57;4.32;;;16.50;99.90;;;;;;2063773;28;20560;-72
2023/10/07 00:11:16;;;;;;;10.38;4.70;;;16.50;99.90;;;;;;2071277;28;20026;-72
2023/10/07 00:12:19;;;;;;;7.15;4.03;;;16.40;99.90;;;;;;2076569;28;20032;-72
2023/10/07 00:13:20;;;;;;;7.68;4.20;;;16.40;99.90;;;;;;2076726;28;20128;-72
2023/10/07 00:14:28;;;;;;;10.65;4.70;;;16.40;99.90;;;;;;2078223;28;20037;-72
2023/10/07 00:15:29;;;;;;;11.13;4.60;;;16.40;99.90;;;;;;2074958;28;20025;-72
2023/10/07 00:16:29;;;;;;;6.78;3.47;;;16.40;99.90;;;;;;2077381;28;20037;-72
2023/10/07 00:17:30;;;;;;;7.38;4.05;;;16.40;99.90;;;;;;2075845;28;20051;-74
2023/10/07 00:18:30;;;;;;;9.88;4.45;;;16.40;99.90;;;;;;2077824;28;20465;-72
2023/10/07 00:19:33;;;;;;;6.68;4.20;;;16.40;99.90;;;;;;2078165;28;20018;-72
2023/10/07 00:20:33;;;;;;;7.40;4.10;;;16.40;99.90;;;;;;2076392;28;20035;-72
2023/10/07 00:21:58;;;;;;;7.47;4.72;;;16.40;99.90;;;;;;2077603;28;20033;-72
2023/10/07 00:23:00;;;;;;;6.75;4.03;;;16.30;99.90;;;;;;2068426;28;20104;-73
2023/10/07 00:24:05;;;;;;;10.10;4.60;;;16.30;99.90;;;;;;2068639;28;20022;-73
2023/10/07 00:25:07;;;;;;;5.93;4.00;;;16.30;99.90;;;;;;2076686;28;20080;-72
2023/10/07 00:26:09;;;;;;;6.35;4.55;;;16.30;99.90;;;;;;2075844;28;21415;-72
2023/10/07 00:27:26;;;;;;;7.18;3.88;;;16.30;99.90;;;;;;2068922;28;20026;-72
2023/10/07 00:28:35;;;;;;;8.35;4.30;;;16.30;99.90;;;;;;2062548;28;20019;-72
2023/10/07 00:29:52;;;;;;;6.97;3.95;;;16.20;99.90;;;;;;2069647;28;20616;-72
2023/10/07 00:30:55;;;;;;;9.60;4.60;;;16.20;99.90;;;;;;2076088;28;20079;-72
2023/10/07 00:31:56;;;;;;;8.10;4.30;;;16.20;99.90;;;;;;2077351;28;20528;-72
2023/10/07 00:32:58;;;;;;;8.18;4.38;;;16.30;99.90;;;;;;2076330;28;21001;-73
2023/10/07 00:34:03;;;;;;;6.00;4.18;;;16.30;99.90;;;;;;2075419;28;20022;-73
2023/10/07 00:35:06;;;;;;;8.43;4.22;;;16.30;99.90;;;;;;2076309;28;20029;-73
2023/10/07 00:36:09;;;;;;;8.90;4.80;;;16.30;99.90;;;;;;2076116;28;20068;-72
2023/10/07 00:37:09;;;;;;;7.55;4.35;;;16.20;99.90;;;;;;2076001;28;20043;-72
2023/10/07 00:38:14;;;;;;;10.68;4.50;;;16.20;99.90;;;;;;2075216;28;20029;-73
2023/10/07 00:39:21;;;;;;;10.48;4.95;;;16.20;99.90;;;;;;2076327;28;20471;-72
2023/10/07 00:40:42;;;;;;;7.65;4.05;;;16.20;99.90;;;;;;2077062;28;20031;-72
2023/10/07 00:41:46;;;;;;;10.85;5.00;;;16.20;99.90;;;;;;2077920;28;20029;-72
2023/10/07 00:42:50;;;;;;;6.60;4.00;;;16.20;99.90;;;;;;2064195;28;20038;-72
2023/10/07 00:43:58;;;;;;;11.02;4.63;;;16.20;99.90;;;;;;2069353;28;20073;-73
2023/10/07 00:45:00;;;;;;;8.57;4.13;;;16.20;99.90;;;;;;2075833;28;20088;-72
2023/10/07 00:46:10;;;;;;;8.13;4.38;;;16.20;99.90;;;;;;2069193;28;20022;-72
2023/10/07 00:47:14;;;;;;;8.60;3.92;;;16.20;99.90;;;;;;2070334;28;20026;-73
2023/10/07 00:48:16;;;;;;;7.07;4.28;;;16.20;99.90;;;;;;2078005;28;20360;-72
2023/10/07 00:49:27;;;;;;;11.98;4.97;;;16.20;99.90;;;;;;2076528;28;20033;-72
2023/10/07 00:50:27;;;;;;;7.70;4.28;;;16.20;99.90;;;;;;2077845;28;20527;-72
2023/10/07 00:51:35;;;;;;;10.82;4.55;;;16.20;99.90;;;;;;2076743;28;20409;-72
2023/10/07 00:52:48;;;;;;;7.93;3.70;;;16.20;99.90;;;;;;2076465;28;20061;-73
2023/10/07 00:54:00;;;;;;;7.43;4.18;;;16.20;99.90;;;;;;2068720;28;20508;-72
2023/10/07 00:55:09;;;;;;;9.32;4.43;;;16.20;99.90;;;;;;2070700;28;20068;-73
2023/10/07 00:56:10;;;;;;;6.53;3.67;;;16.20;99.90;;;;;;2074783;28;20034;-72
2023/10/07 00:58:35;;;;;;;8.30;4.00;;;16.20;99.90;;;;;;2071929;28;20038;-72
2023/10/07 00:59:40;;;;;;;8.15;4.75;;;16.20;99.90;;;;;;2074278;28;20049;-72
2023/10/07 01:00:49;;;;;;;12.48;4.25;;;16.10;99.90;;;;;;2076744;28;20064;-72
2023/10/07 01:01:54;;;;;;;8.07;4.35;;;16.10;99.90;;;;;;2078680;28;20383;-72
2023/10/07 01:03:13;;;;;;;5.90;4.38;;;16.10;99.90;;;;;;2074387;28;20026;-72
2023/10/07 01:04:16;;;;;;;8.57;4.25;;;16.10;99.90;;;;;;2075911;28;20702;-72
2023/10/07 01:05:27;;;;;;;12.60;4.18;;;16.10;99.90;;;;;;2068140;28;20129;-72
2023/10/07 01:06:31;;;;;;;6.95;3.90;;;16.10;99.90;;;;;;2070275;28;20030;-72
2023/10/07 01:07:34;;;;;;;8.50;4.35;;;16.10;99.90;;;;;;2075073;28;20116;-72
2023/10/07 01:08:44;;;;;;;6.88;3.92;;;16.10;99.90;;;;;;2076229;28;20047;-72
2023/10/07 01:10:00;;;;;;;10.68;4.28;;;16.10;99.90;;;;;;2077082;28;20021;-73
2023/10/07 01:11:19;;;;;;;7.70;4.03;;;16.10;99.90;;;;;;2076286;28;20374;-73
2023/10/07 01:12:25;;;;;;;8.20;4.05;;;16.10;99.90;;;;;;2076825;28;20048;-72
2023/10/07 01:13:29;;;;;;;10.50;5.25;;;16.10;99.90;;;;;;2067563;28;20423;-72
2023/10/07 01:14:34;;;;;;;9.40;4.10;;;16.10;99.90;;;;;;2060837;28;20113;-72
2023/10/07 01:15:35;;;;;;;9.15;4.15;;;16.10;99.90;;;;;;2069792;28;20446;-72
2023/10/07 01:16:42;;;;;;;10.02;3.85;;;16.10;99.90;;;;;;2077292;28;20100;-72
2023/10/07 01:17:47;;;;;;;10.07;4.53;;;16.10;99.90;;;;;;2076473;28;20036;-72
2023/10/07 01:18:47;;;;;;;6.28;3.90;;;16.10;99.90;;;;;;2077404;28;20465;-72
2023/10/07 01:19:52;;;;;;;8.75;3.72;;;16.00;99.90;;;;;;2076915;28;20758;-72
2023/10/07 01:21:57;;;;;;;9.18;4.20;;;16.10;99.90;;;;;;2075855;28;20021;-72
2023/10/07 01:23:03;;;;;;;7.00;3.95;;;16.00;99.90;;;;;;2076621;28;20135;-72
2023/10/07 01:24:06;;;;;;;10.80;4.55;;;16.00;99.90;;;;;;2076770;28;20460;-73
2023/10/07 01:25:09;;;;;;;14.20;4.53;;;16.00;99.90;;;;;;2076027;28;20030;-72
2023/10/07 01:26:21;;;;;;;8.07;4.05;;;16.00;99.90;;;;;;2075815;28;20036;-72
2023/10/07 01:27:29;;;;;;;9.93;3.78;;;16.00;99.90;;;;;;2075132;28;20035;-72
2023/10/07 01:28:32;;;;;;;8.13;4.30;;;16.00;99.90;;;;;;2077710;28;20520;-73
2023/10/07 01:29:34;;;;;;;11.20;4.53;;;16.00;99.90;;;;;;2066745;28;20037;-71
2023/10/07 01:30:35;;;;;;;6.53;3.85;;;16.00;99.90;;;;;;2066644;28;20022;-73
2023/10/07 01:31:40;;;;;;;7.13;4.20;;;16.00;99.90;;;;;;2076809;28;20021;-72
2023/10/07 01:32:54;;;;;;;9.30;4.03;;;16.00;99.90;;;;;;2074763;28;20512;-72
2023/10/07 01:34:00;;;;;;;7.78;4.05;;;16.00;99.90;;;;;;2076211;28;20592;-72
2023/10/07 01:35:11;;;;;;;7.18;3.53;;;16.00;99.90;;;;;;2066282;28;20539;-72
2023/10/07 01:36:16;;;;;;;6.15;3.72;;;16.10;99.90;;;;;;2068071;28;20022;-73
2023/10/07 01:37:21;;;;;;;8.80;4.63;;;16.00;99.90;;;;;;2075206;28;20026;-72
2023/10/07 01:38:22;;;;;;;10.65;4.93;;;16.10;99.90;;;;;;2076677;28;20492;-72
2023/10/07 01:39:24;;;;;;;5.20;3.58;;;16.10;99.90;;;;;;2076132;28;20022;-73
2023/10/07 01:40:31;;;;;;;8.32;4.25;;;16.00;99.90;;;;;;2075772;28;20033;-72
2023/10/07 01:41:37;;;;;;;8.10;4.43;;;16.10;99.90;;;;;;2076365;28;20108;-73
2023/10/07 01:42:38;;;;;;;13.45;3.75;;;16.00;99.90;;;;;;2075880;28;20029;-72
2023/10/07 01:43:40;;;;;;;10.75;4.45;;;16.10;99.90;;;;;;2076544;28;20538;-72
2023/10/07 01:44:41;;;;;;;9.32;4.32;;;16.10;99.90;;;;;;2075398;28;20022;-72
2023/10/07 01:45:41;;;;;;;10.25;4.43;;;16.10;99.90;;;;;;2076293;28;20027;-72
2023/10/07 01:46:44;;;;;;;9.13;3.97;;;16.00;99.90;;;;;;2075036;28;20568;-73
2023/10/07 01:47:45;;;;;;;11.80;4.47;;;16.10;99.90;;;;;;2075569;28;20068;-73
2023/10/07 01:48:55;;;;;;;6.75;4.22;;;16.00;99.90;;;;;;2075913;28;20353;-72
2023/10/07 01:49:57;;;;;;;7.57;3.83;;;16.10;99.90;;;;;;2070259;28;20076;-73
2023/10/07 01:50:58;;;;;;;8.80;4.70;;;16.10;99.90;;;;;;2069892;28;20026;-72
2023/10/07 01:52:03;;;;;;;5.72;3.58;;;16.00;99.90;;;;;;2076850;28;20052;-73
2023/10/07 01:53:05;;;;;;;10.15;3.85;;;16.10;99.90;;;;;;2066598;28;20022;-72
2023/10/07 01:54:08;;;;;;;9.13;4.15;;;16.10;99.90;;;;;;2069079;28;20026;-72
2023/10/07 01:55:09;;;;;;;11.75;3.95;;;16.10;99.90;;;;;;2076870;28;20480;-73
2023/10/07 01:56:14;;;;;;;10.73;4.25;;;16.10;99.90;;;;;;2075755;28;20029;-72
2023/10/07 01:57:15;;;;;;;6.47;3.95;;;16.10;99.90;;;;;;2078014;28;20425;-72
2023/10/07 01:58:19;;;;;;;7.32;4.30;;;16.10;99.90;;;;;;2077208;28;20384;-73
2023/10/07 01:59:20;;;;;;;9.75;4.50;;;16.10;99.90;;;;;;2076120;28;20117;-72
2023/10/07 02:00:38;;;;;;;12.40;4.38;;;16.10;99.90;;;;;;2075043;28;20033;-72
2023/10/07 02:01:42;;;;;;;8.68;4.20;;;16.10;99.90;;;;;;2077249;28;20072;-73
2023/10/07 02:02:48;;;;;;;7.15;4.28;;;16.10;99.90;;;;;;2075455;28;20025;-73
2023/10/07 02:03:49;;;;;;;7.70;4.38;;;16.10;99.90;;;;;;2067286;28;20030;-73
2023/10/07 02:04:53;;;;;;;9.45;4.18;;;16.10;99.90;;;;;;2066246;28;20030;-73
2023/10/07 02:05:55;;;;;;;9.10;4.80;;;16.20;99.90;;;;;;2075343;28;20107;-73
2023/10/07 02:06:56;;;;;;;9.38;4.45;;;16.20;99.90;;;;;;2076382;28;20029;-72
2023/10/07 02:07:58;;;;;;;10.00;4.10;;;16.20;99.90;;;;;;2076569;28;20071;-72
2023/10/07 02:08:59;;;;;;;9.02;4.72;;;16.20;99.90;;;;;;2077688;28;20108;-72
2023/10/07 02:10:01;;;;;;;9.27;4.40;;;16.20;99.90;;;;;;2075693;28;20025;-72
2023/10/07 02:11:05;;;;;;;10.63;4.47;;;16.20;99.90;;;;;;2076964;28;20087;-71
2023/10/07 02:12:09;;;;;;;7.35;4.22;;;16.20;99.90;;;;;;2076218;28;20087;-72
2023/10/07 02:13:20;;;;;;;9.82;5.20;;;16.20;99.90;;;;;;2076582;28;20025;-73
2023/10/07 02:14:25;;;;;;;11.20;4.20;;;16.20;99.90;;;;;;2073809;28;20022;-73
2023/10/07 02:15:27;;;;;;;10.55;4.93;;;16.20;99.90;;;;;;2074551;28;20107;-72
2023/10/07 02:16:28;;;;;;;8.63;4.43;;;16.20;99.90;;;;;;2075929;28;20028;-72
2023/10/07 02:17:28;;;;;;;8.75;5.10;;;16.20;99.90;;;;;;2076647;28;20042;-73
2023/10/07 02:18:29;;;;;;;11.85;5.05;;;16.20;99.90;;;;;;2074809;28;20372;-72
2023/10/07 02:19:31;;;;;;;8.25;4.40;;;16.20;99.90;;;;;;2075007;28;20049;-72
2023/10/07 02:20:38;;;;;;;9.68;4.88;;;16.30;99.90;;;;;;2075915;28;20366;-73
2023/10/07 02:21:41;;;;;;;10.80;4.97;;;16.30;99.90;;;;;;2076611;28;20031;-72
2023/10/07 02:22:44;;;;;;;7.60;4.30;;;16.20;99.90;;;;;;2074764;28;20084;-72
2023/10/07 02:23:45;;;;;;;8.80;5.18;;;16.30;99.90;;;;;;2068551;28;20469;-72
2023/10/07 02:24:47;;;;;;;14.02;5.40;;;16.30;99.90;;;;;;2067700;28;20034;-72
2023/10/07 02:25:50;;;;;;;9.25;4.80;;;16.30;99.90;;;;;;2075104;28;20021;-73
2023/10/07 02:26:54;;;;;;;8.90;4.78;;;16.30;99.90;;;;;;2076522;28;20017;-73
2023/10/07 02:27:55;;;;;;;12.25;5.50;;;16.30;99.90;;;;;;2076849;28;20056;-72
2023/10/07 02:29:04;;;;;;;9.02;4.72;;;16.30;99.90;;;;;;2076511;28;20670;-72
2023/10/07 02:30:05;;;;;;;9.65;4.90;;;16.30;99.90;;;;;;2075459;28;20681;-72
2023/10/07 02:31:15;;;;;;;16.00;5.88;;;16.30;99.90;;;;;;2074419;28;20038;-72
2023/10/07 02:32:17;;;;;;;8.93;4.82;;;16.20;99.90;;;;;;2067956;28;20045;-73
2023/10/07 02:33:21;;;;;;;9.85;5.32;;;16.20;99.90;;;;;;2067409;28;20854;-73
2023/10/07 02:34:28;;;;;;;9.13;5.70;;;16.20;99.90;;;;;;2076494;28;20085;-74
2023/10/07 02:35:31;;;;;;;11.30;5.35;;;16.20;99.90;;;;;;2076770;28;20052;-72
2023/10/07 02:36:51;;;;;;;16.77;5.75;;;16.20;99.90;;;;;;2075893;28;20022;-72
2023/10/07 02:37:51;;;;;;;11.73;5.93;;;16.20;99.90;;;;;;2075861;28;20486;-72
2023/10/07 02:38:52;;;;;;;9.00;5.75;;;16.20;99.90;;;;;;2075715;28;20408;-72
2023/10/07 02:40:00;;;;;;;10.80;5.75;;;16.20;99.90;;;;;;2077038;28;20021;-72
2023/10/07 02:41:07;;;;;;;11.60;5.43;;;16.20;99.90;;;;;;2074809;28;20026;-72
2023/10/07 02:42:07;;;;;;;11.35;4.82;;;16.20;99.90;;;;;;2075162;28;20025;-72
2023/10/07 02:43:08;;;;;;;14.43;5.68;;;16.20;99.90;;;;;;2075467;28;20039;-72
2023/10/07 02:44:15;;;;;;;9.43;5.30;;;16.20;99.90;;;;;;2073409;28;20048;-73
2023/10/07 02:46:32;;;;;;;9.50;5.43;;;16.30;99.90;;;;;;2069292;28;20072;-74
2023/10/07 02:47:32;;;;;;;8.35;5.18;;;16.30;99.90;;;;;;2076354;28;20030;-73
2023/10/07 02:48:38;;;;;;;7.85;4.72;;;16.30;99.90;;;;;;2075212;28;20040;-73
2023/10/07 02:49:47;;;;;;;13.35;7.00;;;16.30;99.90;;;;;;2065843;28;20037;-72
2023/10/07 02:50:51;;;;;;;10.95;5.97;;;16.30;99.90;;;;;;2067234;28;20022;-73
2023/10/07 02:51:58;;;;;;;8.60;4.90;;;16.30;99.90;;;;;;2075100;28;20022;-72
2023/10/07 02:53:02;;;;;;;10.70;5.45;;;16.30;99.90;;;;;;2068409;28;20021;-72
2023/10/07 02:54:15;;;;;;;14.02;6.15;;;16.30;99.90;;;;;;2071456;28;20109;-73
2023/10/07 02:56:21;;;;;;;8.25;5.72;;;16.30;99.90;;;;;;2073106;28;20032;-72
2023/10/07 02:57:24;;;;;;;9.88;5.40;;;16.30;99.90;;;;;;2075531;28;20022;-72
2023/10/07 02:58:32;;;;;;;8.80;5.43;;;16.30;99.90;;;;;;2076249;28;20021;-72
2023/10/07 02:59:41;;;;;;;12.07;6.03;;;16.30;99.90;;;;;;2075553;28;20071;-73
2023/10/07 03:00:49;;;;;;;13.25;5.18;;;16.30;99.90;;;;;;2075419;28;20691;-72
2023/10/07 03:02:46;;;;;;;8.45;5.55;;;16.30;99.90;;;;;;2076351;28;20029;-74
2023/10/07 03:03:38;;;;;;;13.93;6.82;;;16.30;99.90;;;;;;2073375;28;20080;-72
2023/10/07 03:04:43;;;;;;;11.60;5.93;;;16.30;99.90;;;;;;2076586;28;20026;-72
2023/10/07 03:05:44;;;;;;;10.70;6.03;;;16.30;99.90;;;;;;2075523;28;20025;-73
2023/10/07 03:06:46;;;;;;;12.65;5.97;;;16.30;99.90;;;;;;2075575;28;20040;-73
2023/10/07 03:07:49;;;;;;;10.75;5.65;;;16.40;99.90;;;;;;2064426;28;20788;-72
2023/10/07 03:08:57;;;;;;;9.40;6.07;;;16.30;99.90;;;;;;2064052;28;20540;-72
2023/10/07 03:10:05;;;;;;;11.38;6.38;;;16.40;99.90;;;;;;2074246;28;20041;-72
2023/10/07 03:11:20;;;;;;;15.50;6.20;;;16.40;99.90;;;;;;2076946;28;20064;-72
2023/10/07 03:12:27;;;;;;;12.05;6.07;;;16.30;99.90;;;;;;2075324;28;20030;-73
2023/10/07 03:13:28;;;;;;;11.63;6.03;;;16.30;99.90;;;;;;2066313;28;20069;-72
2023/10/07 03:14:29;;;;;;;19.42;6.50;;;16.40;99.90;;;;;;2068316;28;20552;-72
2023/10/07 03:16:43;;;;;;;9.60;5.90;;;16.40;99.90;;;;;;2077507;28;20061;-73
2023/10/07 03:17:46;;;;;;;12.05;6.70;;;16.40;99.90;;;;;;2074689;28;20026;-73
2023/10/07 03:18:55;;;;;;;15.52;7.25;;;16.40;99.90;;;;;;2075510;28;20049;-73
2023/10/07 03:20:23;;;;;;;12.07;6.60;;;16.40;99.90;;;;;;2063384;28;20026;-73
2023/10/07 03:21:21;;;;;;;11.02;6.50;;;16.40;99.90;;;;;;2067265;28;20725;-72
2023/10/07 03:22:29;;;;;;;13.23;7.18;;;16.40;99.90;;;;;;2076002;28;20551;-73
2023/10/07 03:23:33;;;;;;;8.32;6.30;;;16.40;99.90;;;;;;2076800;28;20080;-73
2023/10/07 03:24:41;;;;;;;11.73;6.88;;;16.40;99.90;;;;;;2074582;28;20037;-73
2023/10/07 03:26:05;;;;;;;10.57;6.35;;;16.40;99.90;;;;;;2074997;28;20020;-72
2023/10/07 03:27:10;;;;;;;11.38;7.05;;;16.40;99.90;;;;;;2074783;28;20540;-73
2023/10/07 03:28:16;;;;;;;18.73;6.88;;;16.40;99.90;;;;;;2076565;28;20110;-73
2023/10/07 03:29:30;;;;;;;13.13;7.05;;;16.40;99.90;;;;;;2076212;28;20771;-72
2023/10/07 03:30:31;;;;;;;13.65;7.10;;;16.40;99.90;;;;;;2075242;28;20034;-73
2023/10/07 03:31:47;;;;;;;11.63;7.28;;;16.40;99.90;;;;;;2074862;28;20032;-73
2023/10/07 03:32:54;;;;;;;10.60;6.47;;;16.40;99.90;;;;;;2076162;28;20108;-72
2023/10/07 03:33:58;;;;;;;13.43;6.70;;;16.40;99.90;;;;;;2076243;28;20022;-72
2023/10/07 03:34:59;;;;;;;10.63;7.32;;;16.40;99.90;;;;;;2075104;28;20130;-72
2023/10/07 03:38:09;;;;;;;17.23;7.40;;;16.40;99.90;;;;;;2075145;28;20033;-72
2023/10/07 03:40:34;;;;;;;12.65;7.32;;;16.40;99.90;;;;;;2075407;28;20057;-73
2023/10/07 03:41:35;;;;;;;11.10;6.78;;;16.40;99.90;;;;;;2075688;28;20029;-72
2023/10/07 03:42:38;;;;;;;10.95;7.35;;;16.40;99.90;;;;;;2075157;28;20116;-72
2023/10/07 03:43:38;;;;;;;15.27;7.60;;;16.50;99.90;;;;;;2075573;28;20057;-72
2023/10/07 03:44:39;;;;;;;16.08;7.95;;;16.40;99.90;;;;;;2076144;28;20476;-73
2023/10/07 03:45:39;;;;;;;11.70;7.70;;;16.50;99.90;;;;;;2074795;28;20026;-72
2023/10/07 03:46:40;;;;;;;14.77;7.20;;;16.50;99.90;;;;;;2076906;28;20468;-72
2023/10/07 03:47:46;;;;;;;9.35;7.05;;;16.50;99.90;;;;;;2076854;28;20033;-72
2023/10/07 03:48:53;;;;;;;12.30;7.70;;;16.50;99.90;;;;;;2073379;28;20112;-72
2023/10/07 03:49:58;;;;;;;14.15;8.35;;;16.50;99.90;;;;;;2073671;28;20025;-72
2023/10/07 03:51:05;;;;;;;11.85;7.35;;;16.50;99.90;;;;;;2074674;28;20366;-74
2023/10/07 03:52:12;;;;;;;13.18;7.80;;;16.50;99.90;;;;;;2076257;28;20036;-73
2023/10/07 03:53:14;;;;;;;10.77;7.80;;;16.50;99.90;;;;;;2075893;28;20034;-73
2023/10/07 03:54:29;;;;;;;14.23;7.93;;;16.50;99.90;;;;;;2075517;28;20696;-72
2023/10/07 03:55:29;;;;;;;13.98;7.97;;;16.50;99.90;;;;;;2073643;28;20061;-72
2023/10/07 03:56:31;;;;;;;14.82;8.30;;;16.50;99.90;;;;;;2075637;28;20029;-73
2023/10/07 03:57:33;;;;;;;12.10;8.15;;;16.50;99.90;;;;;;2075478;28;20033;-72
2023/10/07 03:58:36;;;;;;;12.45;8.50;;;16.60;99.90;;;;;;2077484;28;20036;-73
2023/10/07 03:59:37;;;;;;;15.43;8.77;;;16.60;99.90;;;;;;2078881;28;20435;-72
2023/10/07 04:00:41;;;;;;;20.10;9.05;;;16.60;99.90;;;;;;2076687;28;20044;-74
2023/10/07 04:01:45;;;;;;;19.33;9.23;;;16.60;99.90;;;;;;2077424;28;20025;-72
2023/10/07 04:02:45;;;;;;;13.25;8.70;;;16.60;99.90;;;;;;2077904;28;20159;-73
2023/10/07 04:03:47;;;;;;;16.35;9.00;;;16.60;99.90;;;;;;2077079;28;20022;-73
2023/10/07 04:04:55;;;;;;;14.73;9.15;;;16.60;99.90;;;;;;2078720;28;20049;-73
2023/10/07 04:05:56;;;;;;;13.90;9.02;;;16.60;99.90;;;;;;2075291;28;20029;-73
2023/10/07 04:07:00;;;;;;;17.20;9.05;;;16.60;99.90;;;;;;2076802;28;20098;-72
2023/10/07 04:08:02;;;;;;;13.48;9.50;;;16.60;99.90;;;;;;2076035;28;20823;-73
2023/10/07 04:09:05;;;;;;;14.20;8.75;;;16.60;99.90;;;;;;2078188;28;20419;-72
2023/10/07 04:11:26;;;;;;;14.02;9.27;;;16.60;99.90;;;;;;2076397;28;20025;-72
2023/10/07 04:12:26;;;;;;;14.68;9.30;;;16.60;99.90;;;;;;2076482;28;20033;-72
2023/10/07 04:13:27;;;;;;;14.52;9.23;;;16.60;99.90;;;;;;2070056;28;20113;-72
2023/10/07 04:14:27;;;;;;;13.30;9.88;;;16.60;99.90;;;;;;2062656;28;20022;-72
2023/10/07 04:15:29;;;;;;;15.68;9.32;;;16.70;99.90;;;;;;2065828;28;20057;-72
2023/10/07 04:16:33;;;;;;;14.27;9.43;;;16.60;99.90;;;;;;2075810;28;20033;-71
2023/10/07 04:17:34;;;;;;;12.38;9.07;;;16.70;99.90;;;;;;2076693;28;20022;-72
2023/10/07 04:18:34;;;;;;;16.73;8.90;;;16.70;99.90;;;;;;2076471;28;20030;-72
2023/10/07 04:19:42;;;;;;;10.57;8.77;;;16.70;99.90;;;;;;2075846;28;20588;-72
2023/10/07 04:20:51;;;;;;;14.70;9.20;;;16.70;99.90;;;;;;2076672;28;20079;-72
2023/10/07 04:21:51;;;;;;;13.95;9.23;;;16.70;99.90;;;;;;2077644;28;20032;-72
2023/10/07 04:23:00;;;;;;;16.73;9.95;;;16.70;99.90;;;;;;2075274;28;20053;-72
2023/10/07 04:24:01;;;;;;;13.23;8.93;;;16.70;99.90;;;;;;2076956;28;20021;-73
2023/10/07 04:25:07;;;;;;;15.25;9.38;;;16.70;99.90;;;;;;2067290;28;20038;-72
2023/10/07 04:26:12;;;;;;;12.38;8.55;;;16.70;99.90;;;;;;2066313;28;20026;-72
2023/10/07 04:27:19;;;;;;;12.82;8.43;;;16.70;99.90;;;;;;2077545;28;20010;-73
2023/10/07 04:28:20;;;;;;;15.23;9.45;;;16.70;99.90;;;;;;2078100;28;20076;-72
2023/10/07 04:29:21;;;;;;;15.07;9.05;;;16.70;99.90;;;;;;2070166;28;20030;-73
2023/10/07 04:30:25;;;;;;;15.20;9.60;;;16.70;99.90;;;;;;2063210;28;20046;-72
2023/10/07 04:31:34;;;;;;;14.32;9.93;;;16.70;99.90;;;;;;2070651;28;20080;-73
2023/10/07 04:32:37;;;;;;;16.80;10.60;;;16.70;99.90;;;;;;2068891;28;20040;-72
2023/10/07 04:33:47;;;;;;;15.60;9.65;;;16.70;99.90;;;;;;2068388;28;20026;-72
2023/10/07 04:35:16;;;;;;;;;;;16.70;99.90;;;;;;2077972;28;20120;-72
2023/10/07 04:36:13;;;;;;;16.83;9.70;;;16.60;99.90;;;;;;2075186;28;19917;-72
2023/10/07 04:37:17;;;;;;;14.82;9.50;;;16.60;99.90;;;;;;2077000;28;20106;-73
2023/10/07 04:39:28;;;;;;;14.15;9.30;;;16.70;99.90;;;;;;2077627;28;20111;-72
2023/10/07 04:40:53;;;;;;;16.98;10.73;;;16.70;99.90;;;;;;2075758;28;20030;-72
2023/10/07 04:41:57;;;;;;;14.00;10.40;;;16.70;99.90;;;;;;2076570;28;20516;-72
2023/10/07 04:45:00;;;;;;;16.35;10.55;;;16.60;99.90;;;;;;2077410;28;20029;-72
2023/10/07 04:45:49;;;;;;;16.15;9.55;;;16.70;99.90;;;;;;2076399;28;20025;-72
2023/10/07 04:47:29;;;;;;;17.70;10.38;;;16.60;99.90;;;;;;2077358;28;20076;-72
2023/10/07 04:48:31;;;;;;;14.20;9.47;;;16.60;99.90;;;;;;2077804;28;20029;-71
2023/10/07 04:49:42;;;;;;;16.40;10.50;;;16.60;99.90;;;;;;2077590;28;20264;-71
2023/10/07 04:50:52;;;;;;;15.02;11.43;;;16.60;99.90;;;;;;2078235;28;20017;-73
2023/10/07 04:51:58;;;;;;;19.73;11.57;;;16.70;99.90;;;;;;2076999;28;20037;-72
2023/10/07 04:53:03;;;;;;;14.73;10.90;;;16.70;99.90;;;;;;2076103;28;20799;-73
2023/10/07 04:54:04;;;;;;;17.52;12.05;;;16.70;99.90;;;;;;2077193;28;20022;-72
2023/10/07 04:55:05;;;;;;;16.13;11.52;;;16.70;99.90;;;;;;2076392;28;20018;-72
2023/10/07 04:56:06;;;;;;;18.65;11.55;;;16.70;99.90;;;;;;2075691;28;20022;-72
2023/10/07 04:57:10;;;;;;;17.40;11.48;;;16.70;99.90;;;;;;2077199;28;20496;-72
2023/10/07 04:58:12;;;;;;;16.60;10.75;;;16.80;99.90;;;;;;2077074;28;20358;-72
2023/10/07 04:59:13;;;;;;;17.75;11.35;;;16.70;99.90;;;;;;2074742;28;20026;-72
2023/10/07 05:01:31;;;;;;;12.95;10.65;;;16.80;99.90;;;;;;2077184;28;20021;-72
2023/10/07 05:02:32;;;;;;;15.00;11.18;;;16.80;99.90;;;;;;2067482;28;20032;-72
2023/10/07 05:03:33;;;;;;;14.98;11.38;;;16.80;99.90;;;;;;2068728;28;20040;-72
2023/10/07 05:04:34;;;;;;;16.38;10.73;;;16.80;99.90;;;;;;2076430;28;20028;-72
2023/10/07 05:05:35;;;;;;;15.80;10.93;;;16.80;99.90;;;;;;2076742;28;20072;-72
2023/10/07 05:06:37;;;;;;;13.40;10.43;;;16.80;99.90;;;;;;2077348;28;20495;-72
2023/10/07 05:07:38;;;;;;;18.38;11.50;;;16.80;99.90;;;;;;2077215;28;20488;-72
2023/10/07 05:08:39;;;;;;;15.45;11.00;;;16.80;99.90;;;;;;2075970;28;20025;-72
2023/10/07 05:09:40;;;;;;;15.77;11.15;;;16.80;99.90;;;;;;2074637;28;20040;-72
2023/10/07 05:10:41;;;;;;;13.45;10.32;;;16.80;99.90;;;;;;2076296;28;20026;-72
2023/10/07 05:11:43;;;;;;;15.60;9.65;;;16.80;99.90;;;;;;2075530;28;20560;-71
2023/10/07 05:12:44;;;;;;;17.20;11.48;;;16.80;99.90;;;;;;2076738;28;20029;-72
2023/10/07 05:13:46;;;;;;;14.95;10.45;;;16.80;99.90;;;;;;2077048;28;20101;-72
2023/10/07 05:14:50;;;;;;;15.35;10.25;;;16.80;99.90;;;;;;2076583;28;20109;-72
2023/10/07 05:15:51;;;;;;;17.20;10.85;;;16.90;99.90;;;;;;2075678;28;20032;-72
2023/10/07 05:16:52;;;;;;;17.65;10.20;;;16.80;99.90;;;;;;2069344;28;20022;-73
2023/10/07 05:17:52;;;;;;;15.20;10.48;;;16.80;99.90;;;;;;2059302;28;20073;-72
2023/10/07 05:18:53;;;;;;;19.00;10.00;;;16.80;99.90;;;;;;2068854;28;20029;-72
2023/10/07 05:19:54;;;;;;;18.77;10.65;;;16.80;99.90;;;;;;2077126;28;20064;-72
2023/10/07 05:20:57;;;;;;;17.15;11.10;;;16.80;99.90;;;;;;2076794;28;20025;-72
2023/10/07 05:22:14;;;;;;;17.77;11.10;;;16.80;99.90;;;;;;2077526;28;20029;-72
2023/10/07 05:23:15;;;;;;;15.52;10.27;;;16.80;99.90;;;;;;2076822;28;20477;-73
2023/10/07 05:24:17;;;;;;;16.92;11.55;;;16.80;99.90;;;;;;2077508;28;20427;-72
2023/10/07 05:25:18;;;;;;;15.27;10.65;;;16.80;99.90;;;;;;2076300;28;20017;-72
2023/10/07 05:26:19;;;;;;;15.48;10.65;;;16.90;99.90;;;;;;2074372;28;20018;-72
2023/10/07 05:27:19;;;;;;;17.73;10.50;;;16.90;99.90;;;;;;2077682;28;20039;-72
2023/10/07 05:28:21;;;;;;;13.52;10.63;;;16.90;99.90;;;;;;2078068;28;20099;-72
2023/10/07 05:29:22;;;;;;;16.23;11.25;;;16.90;99.90;;;;;;2067498;28;20097;-72
2023/10/07 05:30:22;;;;;;;15.73;10.95;;;16.90;99.90;;;;;;2066346;28;20034;-72
2023/10/07 05:31:23;;;;;;;14.50;10.60;;;16.90;99.90;;;;;;2069673;28;20026;-72
2023/10/07 05:32:25;;;;;;;18.50;10.40;;;16.90;99.90;;;;;;2069886;28;20032;-72
2023/10/07 05:33:28;;;;;;;13.40;9.95;;;16.90;99.90;;;;;;2077836;28;20022;-73
2023/10/07 05:34:28;;;;;;;19.35;11.07;;;16.90;99.90;;;;;;2076122;28;20052;-71
2023/10/07 05:35:29;;;;;;;16.60;10.55;;;16.90;99.90;;;;;;2076230;28;20029;-72
2023/10/07 05:36:30;;;;;;;17.08;10.05;;;16.90;99.90;;;;;;2075532;28;20040;-72
2023/10/07 05:37:31;;;;;;;18.80;10.50;;;16.90;99.90;;;;;;2074533;28;20025;-71
2023/10/07 05:38:34;;;;;;;14.05;9.25;;;16.90;99.90;;;;;;2077378;28;20025;-72
2023/10/07 05:39:35;;;;;;;16.50;10.10;;;16.90;99.90;;;;;;2075235;28;20026;-72
2023/10/07 05:40:40;;;;;;;16.42;11.05;;;16.90;99.90;;;;;;2075472;28;20032;-72
2023/10/07 05:41:41;;;;;;;15.88;9.95;;;16.90;99.90;;;;;;2075633;28;20912;-73
2023/10/07 05:42:42;;;;;;;23.15;10.88;;;16.90;99.90;;;;;;2075277;28;20063;-72
2023/10/07 05:43:48;;;;;;;16.42;11.55;;;16.90;99.90;;;;;;2066242;28;20033;-73
2023/10/07 05:44:49;;;;;;;13.95;10.80;;;16.90;99.90;;;;;;2066741;28;20026;-72
2023/10/07 05:45:49;;;;;;;13.45;10.10;;;16.90;99.90;;;;;;2066692;28;20470;-72
2023/10/07 05:46:50;;;;;;;12.88;10.13;;;16.90;99.90;;;;;;2068245;28;20397;-72
2023/10/07 05:47:51;;;;;;;13.45;9.32;;;16.90;99.90;;;;;;2075601;28;20025;-72